createdAt,value
2023-05-19T00:01:53.448Z,3.50
2023-05-19T00:04:21.340Z,3.83
2023-05-19T00:06:51.399Z,3.67
2023-05-19T00:09:18.677Z,3.17
2023-05-19T00:11:45.934Z,3.30
2023-05-19T00:14:13.791Z,3.92
2023-05-19T00:16:42.420Z,3.38
2023-05-19T00:19:10.877Z,3.28
2023-05-19T00:24:07.941Z,3.58
2023-05-19T00:26:34.916Z,4.13
2023-05-19T00:29:05.532Z,3.60
2023-05-19T00:31:34.243Z,3.20
2023-05-19T00:34:01.792Z,4.05
2023-05-19T00:36:31.137Z,3.50
2023-05-19T00:38:58.179Z,3.55
2023-05-19T00:41:26.262Z,3.00
2023-05-19T00:43:53.245Z,3.38
2023-05-19T00:46:20.435Z,3.03
2023-05-19T00:48:47.965Z,4.07
2023-05-19T00:51:17.151Z,3.85
2023-05-19T00:53:49.422Z,3.00
2023-05-19T00:56:17.082Z,2.80
2023-05-19T00:58:44.698Z,3.25
2023-05-19T01:01:12.336Z,2.92
2023-05-19T01:03:40.957Z,3.38
2023-05-19T01:06:08.244Z,2.95
2023-05-19T01:08:36.462Z,3.70
2023-05-19T01:11:06.808Z,2.97
2023-05-19T01:13:34.914Z,2.92
2023-05-19T01:16:07.132Z,3.72
2023-05-19T01:18:47.766Z,3.97
2023-05-19T01:21:54.004Z,2.70
2023-05-19T01:24:34.821Z,3.05
2023-05-19T01:27:23.122Z,3.60
2023-05-19T01:30:17.449Z,2.85
2023-05-19T01:32:46.152Z,3.20
2023-05-19T01:35:14.974Z,3.58
2023-05-19T01:37:42.864Z,3.95
2023-05-19T01:40:10.822Z,4.45
2023-05-19T01:42:39.966Z,3.03
2023-05-19T01:45:11.719Z,4.20
2023-05-19T01:47:41.938Z,3.60
2023-05-19T01:50:11.305Z,3.90
2023-05-19T01:52:38.427Z,3.72
2023-05-19T01:55:06.457Z,4.55
2023-05-19T01:57:38.535Z,3.83
2023-05-19T02:00:11.782Z,3.70
2023-05-19T02:02:54.538Z,3.83
2023-05-19T02:05:30.995Z,4.60
2023-05-19T02:08:04.106Z,3.67
2023-05-19T02:10:33.435Z,4.75
2023-05-19T02:13:01.753Z,3.60
2023-05-19T02:15:30.857Z,3.50
2023-05-19T02:18:00.296Z,4.57
2023-05-19T02:20:29.491Z,4.10
2023-05-19T02:25:24.389Z,5.22
2023-05-19T02:27:52.230Z,4.07
2023-05-19T02:30:19.276Z,4.25
2023-05-19T02:32:46.923Z,4.65
2023-05-19T02:35:14.247Z,5.20
2023-05-19T02:37:42.575Z,5.65
2023-05-19T02:42:36.614Z,4.97
2023-05-19T02:45:04.589Z,4.60
2023-05-19T02:47:31.760Z,4.95
2023-05-19T02:50:00.405Z,5.20
2023-05-19T02:52:27.402Z,6.55
2023-05-19T02:54:55.837Z,5.53
2023-05-19T02:57:22.921Z,5.18
2023-05-19T02:59:50.062Z,5.50
2023-05-19T03:02:17.041Z,5.05
2023-05-19T03:04:44.054Z,5.53
2023-05-19T03:07:11.196Z,5.55
2023-05-19T03:09:38.187Z,6.57
2023-05-19T03:12:07.724Z,5.95
2023-05-19T03:14:37.736Z,7.13
2023-05-19T03:17:07.997Z,7.18
2023-05-19T03:19:35.214Z,6.28
2023-05-19T03:22:02.275Z,6.53
2023-05-19T03:24:29.264Z,7.93
2023-05-19T03:26:56.284Z,5.72
2023-05-19T03:29:24.660Z,5.75
2023-05-19T03:31:52.488Z,6.45
2023-05-19T03:34:19.615Z,6.03
2023-05-19T03:36:46.822Z,6.25
2023-05-19T03:39:16.055Z,7.15
2023-05-19T03:41:43.961Z,5.97
2023-05-19T03:44:11.026Z,6.47
2023-05-19T03:46:39.415Z,6.50
2023-05-19T03:49:38.666Z,7.35
2023-05-19T03:52:25.681Z,6.07
2023-05-19T03:54:58.686Z,7.70
2023-05-19T03:57:25.765Z,6.68
2023-05-19T03:59:53.794Z,7.63
2023-05-19T04:02:23.108Z,7.20
2023-05-19T04:07:18.322Z,6.45
2023-05-19T04:09:46.044Z,6.70
2023-05-19T04:12:13.085Z,6.30
2023-05-19T04:14:40.007Z,6.97
2023-05-19T04:17:07.118Z,7.28
2023-05-19T04:19:35.485Z,5.82
2023-05-19T04:22:02.492Z,7.43
2023-05-19T04:24:29.916Z,7.10
2023-05-19T04:26:57.035Z,6.60
2023-05-19T04:29:24.357Z,7.80
2023-05-19T04:31:51.315Z,7.53
2023-05-19T04:34:20.113Z,6.50
2023-05-19T04:36:50.997Z,7.32
2023-05-19T04:39:20.114Z,6.90
2023-05-19T04:41:47.200Z,8.18
2023-05-19T04:44:18.227Z,7.10
2023-05-19T04:46:50.083Z,7.65
2023-05-19T04:51:50.133Z,6.05
2023-05-19T04:54:21.422Z,7.03
2023-05-19T04:59:15.531Z,5.72
2023-05-19T05:01:43.332Z,6.72
2023-05-19T05:04:13.347Z,6.07
2023-05-19T05:06:42.493Z,6.32
2023-05-19T05:09:10.550Z,5.75
2023-05-19T05:11:39.627Z,6.80
2023-05-19T05:14:07.118Z,5.00
2023-05-19T05:16:35.044Z,6.35
2023-05-19T05:19:02.915Z,6.20
2023-05-19T05:21:31.825Z,6.00
2023-05-19T05:23:59.881Z,6.35
2023-05-19T05:26:31.624Z,5.60
2023-05-19T05:29:00.057Z,6.25
2023-05-19T05:31:27.177Z,6.35
2023-05-19T05:33:54.137Z,6.00
2023-05-19T05:36:26.832Z,7.40
2023-05-19T05:38:53.894Z,6.03
2023-05-19T05:41:21.745Z,6.32
2023-05-19T05:43:50.733Z,5.18
2023-05-19T05:46:19.786Z,5.80
2023-05-19T05:48:47.419Z,6.60
2023-05-19T05:51:14.973Z,6.25
2023-05-19T05:53:44.377Z,5.82
2023-05-19T05:56:14.223Z,5.82
2023-05-19T05:58:49.720Z,5.60
2023-05-19T06:01:17.007Z,5.85
2023-05-19T06:03:46.123Z,6.10
2023-05-19T06:06:18.059Z,4.63
2023-05-19T06:08:45.474Z,5.38
2023-05-19T06:11:12.697Z,6.15
2023-05-19T06:13:43.863Z,5.72
2023-05-19T06:16:17.096Z,6.00
2023-05-19T06:18:48.275Z,6.57
2023-05-19T06:21:15.341Z,6.47
2023-05-19T06:23:42.591Z,5.30
2023-05-19T06:26:11.076Z,5.72
2023-05-19T06:28:38.139Z,4.53
2023-05-19T06:31:06.186Z,5.10
2023-05-19T06:33:43.537Z,4.80
2023-05-19T06:36:12.131Z,4.43
2023-05-19T06:38:41.556Z,4.32
2023-05-19T06:41:09.167Z,5.40
2023-05-19T06:43:36.290Z,5.18
2023-05-19T06:46:04.333Z,6.30
2023-05-19T06:48:33.136Z,5.60
2023-05-19T06:51:00.412Z,5.28
2023-05-19T06:53:29.629Z,5.18
2023-05-19T06:55:59.922Z,4.13
2023-05-19T06:58:30.974Z,4.90
2023-05-19T07:00:59.311Z,3.97
2023-05-19T07:03:31.292Z,3.72
2023-05-19T07:05:59.235Z,3.83
2023-05-19T07:08:27.932Z,4.68
2023-05-19T07:10:56.488Z,4.15
2023-05-19T07:13:25.307Z,4.53
2023-05-19T07:15:57.030Z,4.70
2023-05-19T07:18:25.744Z,4.32
2023-05-19T07:20:53.558Z,4.30
2023-05-19T07:23:21.121Z,5.25
2023-05-19T07:25:48.230Z,3.47
2023-05-19T07:28:16.676Z,5.00
2023-05-19T07:30:44.208Z,5.00
2023-05-19T07:33:11.258Z,4.82
2023-05-19T07:35:38.250Z,5.15
2023-05-19T07:38:05.355Z,5.72
2023-05-19T07:40:32.714Z,5.30
2023-05-19T07:42:59.805Z,5.80
2023-05-19T07:45:28.190Z,5.30
2023-05-19T07:47:55.333Z,5.80
2023-05-19T07:50:22.497Z,4.80
2023-05-19T07:52:49.463Z,5.30
2023-05-19T07:55:17.382Z,5.80
2023-05-19T08:00:12.681Z,6.13
2023-05-19T08:02:42.501Z,6.60
2023-05-19T08:05:10.549Z,5.35
2023-05-19T08:10:04.765Z,5.03
2023-05-19T08:12:32.458Z,4.97
2023-05-19T08:15:01.325Z,5.53
2023-05-19T08:17:28.702Z,6.65
2023-05-19T08:19:57.264Z,6.20
2023-05-19T08:22:24.260Z,6.30
2023-05-19T08:24:51.922Z,5.97
2023-05-19T08:27:19.017Z,6.68
2023-05-19T08:29:46.092Z,5.78
2023-05-19T08:32:13.510Z,6.30
2023-05-19T08:34:41.366Z,5.70
2023-05-19T08:37:09.719Z,7.00
2023-05-19T08:39:36.788Z,6.68
2023-05-19T08:42:03.877Z,6.63
2023-05-19T08:44:31.328Z,6.32
2023-05-19T08:47:01.555Z,5.80
2023-05-19T08:49:32.759Z,6.20
2023-05-19T08:52:06.283Z,6.28
2023-05-19T08:54:40.908Z,6.93
2023-05-19T08:57:08.258Z,6.60
2023-05-19T08:59:35.221Z,6.32
2023-05-19T09:02:02.787Z,6.20
2023-05-19T09:04:30.529Z,7.78
2023-05-19T09:06:58.923Z,5.97
2023-05-19T09:09:26.102Z,6.70
2023-05-19T09:11:54.478Z,6.88
2023-05-19T09:14:21.553Z,6.03
2023-05-19T09:16:51.175Z,6.18
2023-05-19T09:19:18.422Z,7.60
2023-05-19T09:21:45.888Z,7.45
2023-05-19T09:24:13.071Z,6.63
2023-05-19T09:26:41.092Z,7.70
2023-05-19T09:29:13.443Z,7.35
2023-05-19T09:31:41.496Z,7.05
2023-05-19T09:34:14.835Z,7.03
2023-05-19T09:36:42.443Z,7.13
2023-05-19T09:41:42.873Z,9.82
2023-05-19T09:44:14.636Z,7.75
2023-05-19T09:46:48.524Z,8.20
2023-05-19T09:49:19.708Z,7.75
2023-05-19T09:51:46.655Z,7.68
2023-05-19T09:54:15.506Z,6.85
2023-05-19T09:56:42.532Z,7.32
2023-05-19T09:59:09.576Z,7.03
2023-05-19T10:01:40.384Z,7.53
2023-05-19T10:04:07.883Z,7.50
2023-05-19T10:06:35.019Z,7.55
2023-05-19T10:09:02.445Z,7.45
2023-05-19T10:11:30.584Z,7.97
2023-05-19T10:13:58.334Z,7.30
2023-05-19T10:16:26.293Z,7.25
2023-05-19T10:18:55.810Z,6.75
2023-05-19T10:21:22.775Z,6.38
2023-05-19T10:23:49.845Z,7.03
2023-05-19T10:26:17.065Z,6.55
2023-05-19T10:28:45.488Z,7.22
2023-05-19T10:31:16.982Z,7.55
2023-05-19T10:34:00.383Z,7.45
2023-05-19T10:36:55.930Z,7.30
2023-05-19T10:39:26.150Z,7.25
2023-05-19T10:42:01.461Z,7.10
2023-05-19T10:44:41.241Z,6.60
2023-05-19T10:47:08.831Z,6.22
2023-05-19T10:49:37.481Z,6.03
2023-05-19T10:52:05.073Z,6.72
2023-05-19T10:57:08.393Z,5.90
2023-05-19T10:59:37.931Z,6.90
2023-05-19T11:02:05.555Z,6.38
2023-05-19T11:04:52.475Z,6.22
2023-05-19T11:07:21.649Z,6.78
2023-05-19T11:09:51.123Z,6.63
2023-05-19T11:12:20.958Z,5.70
2023-05-19T11:14:47.948Z,6.13
2023-05-19T11:17:16.392Z,6.22
2023-05-19T11:19:54.651Z,6.70
2023-05-19T11:22:24.578Z,6.03
2023-05-19T11:24:54.262Z,5.00
2023-05-19T11:27:24.764Z,5.97
2023-05-19T11:29:51.888Z,6.40
2023-05-19T11:32:20.707Z,6.35
2023-05-19T11:34:49.169Z,6.38
2023-05-19T11:37:17.557Z,6.63
2023-05-19T11:39:46.055Z,5.72
2023-05-19T11:42:13.486Z,6.18
2023-05-19T11:44:46.186Z,6.10
2023-05-19T11:47:13.481Z,6.47
2023-05-19T11:49:43.452Z,7.75
2023-05-19T11:52:10.617Z,6.28
2023-05-19T11:54:41.789Z,7.60
2023-05-19T11:57:10.489Z,7.00
2023-05-19T11:59:39.229Z,6.97
2023-05-19T12:02:17.815Z,5.88
2023-05-19T12:04:45.032Z,5.28
2023-05-19T12:07:12.446Z,5.47
2023-05-19T12:09:40.851Z,5.68
2023-05-19T12:12:08.151Z,6.30
2023-05-19T12:14:35.956Z,6.10
2023-05-19T12:17:10.813Z,6.85
2023-05-19T12:19:37.934Z,6.78
2023-05-19T12:22:06.701Z,3.95
2023-05-19T12:24:34.071Z,5.15
2023-05-19T12:27:09.960Z,6.47
2023-05-19T12:29:38.414Z,5.30
2023-05-19T12:32:06.148Z,4.35
2023-05-19T12:34:35.903Z,4.72
2023-05-19T12:37:03.339Z,5.90
2023-05-19T12:39:30.415Z,5.93
2023-05-19T12:42:02.009Z,6.82
2023-05-19T12:44:31.486Z,6.18
2023-05-19T12:46:59.635Z,6.18
2023-05-19T12:49:26.599Z,6.38
2023-05-19T12:51:53.983Z,6.13
2023-05-19T12:54:21.701Z,4.38
2023-05-19T12:56:52.128Z,4.55
2023-05-19T12:59:34.574Z,4.95
2023-05-19T13:02:06.675Z,4.75
2023-05-19T13:04:33.852Z,5.05
2023-05-19T13:07:00.839Z,4.57
2023-05-19T13:09:28.635Z,3.40
2023-05-19T13:11:56.050Z,3.17
2023-05-19T13:14:22.956Z,3.40
2023-05-19T13:16:49.953Z,3.58
2023-05-19T13:19:25.497Z,3.63
2023-05-19T13:21:52.879Z,3.58
2023-05-19T13:24:19.800Z,3.55
2023-05-19T13:26:48.222Z,4.13
2023-05-19T13:29:15.212Z,4.75
2023-05-19T13:31:42.247Z,4.25
2023-05-19T13:34:09.307Z,5.18
2023-05-19T13:36:37.770Z,5.05
2023-05-19T13:39:04.777Z,4.60
2023-05-19T13:41:31.717Z,6.32
2023-05-19T13:44:01.752Z,5.78
2023-05-19T13:49:15.783Z,6.07
2023-05-19T13:51:32.996Z,6.25
2023-05-19T13:51:44.334Z,5.20
2023-05-19T13:54:11.462Z,4.82
2023-05-19T13:56:38.760Z,5.53
2023-05-19T13:59:05.732Z,5.80
2023-05-19T14:01:32.940Z,5.35
2023-05-19T14:04:00.986Z,5.90
2023-05-19T14:06:28.422Z,5.13
2023-05-19T14:08:56.732Z,4.63
2023-05-19T14:11:23.670Z,5.85
2023-05-19T14:13:53.524Z,6.13
2023-05-19T14:16:22.193Z,4.78
2023-05-19T14:18:49.459Z,5.10
2023-05-19T14:21:16.461Z,5.68
2023-05-19T14:23:43.395Z,5.25
2023-05-19T14:26:11.688Z,4.88
2023-05-19T14:28:38.624Z,5.10
2023-05-19T14:31:06.293Z,5.50
2023-05-19T14:33:35.576Z,5.10
2023-05-19T14:36:02.830Z,4.93
2023-05-19T14:38:29.841Z,4.85
2023-05-19T14:40:57.166Z,5.22
2023-05-19T14:43:25.480Z,5.18
2023-05-19T14:45:52.455Z,4.82
2023-05-19T14:48:19.463Z,5.72
2023-05-19T14:50:48.318Z,5.03
2023-05-19T14:53:15.443Z,5.38
2023-05-19T14:55:42.412Z,4.72
2023-05-19T14:58:23.661Z,5.18
2023-05-19T15:00:57.716Z,5.30
2023-05-19T15:03:25.089Z,5.25
2023-05-19T15:05:52.030Z,5.10
2023-05-19T15:08:18.932Z,5.25
2023-05-19T15:10:48.698Z,4.68
2023-05-19T15:13:16.122Z,5.68
2023-05-19T15:15:43.104Z,5.60
2023-05-19T15:18:11.697Z,4.65
2023-05-19T15:20:38.671Z,5.63
2023-05-19T15:23:05.805Z,4.57
2023-05-19T15:25:32.713Z,4.32
2023-05-19T15:27:59.792Z,5.80
2023-05-19T15:30:26.639Z,5.30
2023-05-19T15:32:53.599Z,4.75
2023-05-19T15:35:22.214Z,4.20
2023-05-19T15:37:49.127Z,4.80
2023-05-19T15:40:16.267Z,5.15
2023-05-19T15:42:43.352Z,5.53
2023-05-19T15:45:10.468Z,5.18
2023-05-19T15:47:37.401Z,4.53
2023-05-19T15:50:04.783Z,5.45
2023-05-19T15:52:33.199Z,4.80
2023-05-19T15:55:00.123Z,5.70
2023-05-19T15:57:27.093Z,5.10
2023-05-19T15:59:54.016Z,5.22
2023-05-19T16:02:21.600Z,5.32
2023-05-19T16:04:49.263Z,4.35
2023-05-19T16:07:16.957Z,4.93
2023-05-19T16:12:12.036Z,6.22
2023-05-19T16:14:38.992Z,5.20
2023-05-19T16:17:11.418Z,5.43
2023-05-19T16:19:38.520Z,5.80
2023-05-19T16:22:05.922Z,6.40
2023-05-19T16:24:32.886Z,5.53
2023-05-19T16:27:01.371Z,5.47
2023-05-19T16:29:28.264Z,5.70
2023-05-19T16:31:55.266Z,5.63
2023-05-19T16:34:22.289Z,5.30
2023-05-19T16:36:49.230Z,5.50
2023-05-19T16:39:16.421Z,5.10
2023-05-19T16:41:43.362Z,5.05
2023-05-19T16:44:14.402Z,5.55
2023-05-19T16:46:41.678Z,6.00
2023-05-19T16:49:09.104Z,5.47
2023-05-19T16:51:36.106Z,5.25
2023-05-19T16:54:03.135Z,5.22
2023-05-19T16:56:30.046Z,5.97
2023-05-19T16:58:56.916Z,4.90
2023-05-19T17:01:25.607Z,6.05
2023-05-19T17:03:52.600Z,6.03
2023-05-19T17:06:19.606Z,5.80
2023-05-19T17:08:46.643Z,6.53
2023-05-19T17:11:13.608Z,6.15
2023-05-19T17:13:42.388Z,6.50
2023-05-19T17:16:09.514Z,7.25
2023-05-19T17:18:37.827Z,6.20
2023-05-19T17:21:05.423Z,6.82
2023-05-19T17:23:32.628Z,6.20
2023-05-19T17:25:59.561Z,6.35
2023-05-19T17:28:26.497Z,5.75
2023-05-19T17:30:53.521Z,6.53
2023-05-19T17:33:20.910Z,6.50
2023-05-19T17:35:49.281Z,5.10
2023-05-19T17:38:16.204Z,5.93
2023-05-19T17:40:43.194Z,5.55
2023-05-19T17:43:10.140Z,6.28
2023-05-19T17:45:37.040Z,4.85
2023-05-19T17:48:04.813Z,5.32
2023-05-19T17:50:31.873Z,6.45
2023-05-19T17:53:01.181Z,5.90
2023-05-19T17:55:31.014Z,6.35
2023-05-19T17:57:58.549Z,6.10
2023-05-19T18:00:26.250Z,6.30
2023-05-19T18:02:53.854Z,5.80
2023-05-19T18:05:21.635Z,6.68
2023-05-19T18:07:49.742Z,9.18
2023-05-19T18:10:18.301Z,9.10
2023-05-19T18:12:45.239Z,8.77
2023-05-19T18:15:12.272Z,7.97
2023-05-19T18:17:39.342Z,7.78
2023-05-19T18:20:07.859Z,6.78
2023-05-19T18:22:34.809Z,6.78
2023-05-19T18:25:02.003Z,5.57
2023-05-19T18:27:31.458Z,6.00
2023-05-19T18:29:58.437Z,6.63
2023-05-19T18:32:25.473Z,6.13
2023-05-19T18:34:52.400Z,5.07
2023-05-19T18:37:19.330Z,6.45
2023-05-19T18:39:46.580Z,5.97
2023-05-19T18:42:13.510Z,6.65
2023-05-19T18:44:42.329Z,6.13
2023-05-19T18:47:09.278Z,7.32
2023-05-19T18:49:36.721Z,6.88
2023-05-19T18:52:03.830Z,5.60
2023-05-19T18:54:32.520Z,6.63
2023-05-19T18:56:59.495Z,8.70
2023-05-19T18:59:26.356Z,8.02
2023-05-19T19:01:54.966Z,8.95
2023-05-19T19:04:22.171Z,6.90
2023-05-19T19:06:49.731Z,5.95
2023-05-19T19:09:16.683Z,6.53
2023-05-19T19:11:43.804Z,5.57
2023-05-19T19:14:10.900Z,6.00
2023-05-19T19:16:38.006Z,7.28
2023-05-19T19:19:06.484Z,6.18
2023-05-19T19:21:33.559Z,6.85
2023-05-19T19:24:02.118Z,7.68
2023-05-19T19:26:29.176Z,7.20
2023-05-19T19:28:56.136Z,7.75
2023-05-19T19:31:23.208Z,7.15
2023-05-19T19:33:50.166Z,6.30
2023-05-19T19:36:18.414Z,5.82
2023-05-19T19:41:12.203Z,5.45
2023-05-19T19:43:39.087Z,4.80
2023-05-19T19:46:07.245Z,5.15
2023-05-19T19:48:34.219Z,6.13
2023-05-19T19:51:01.716Z,6.18
2023-05-19T19:53:30.182Z,5.28
2023-05-19T19:58:27.888Z,5.75
2023-05-19T20:00:58.924Z,5.63
2023-05-19T20:03:26.494Z,6.15
2023-05-19T20:05:55.750Z,5.68
2023-05-19T20:08:22.872Z,5.55
2023-05-19T20:10:51.195Z,4.63
2023-05-19T20:13:18.452Z,6.63
2023-05-19T20:15:46.219Z,7.25
2023-05-19T20:18:14.989Z,7.07
2023-05-19T20:20:42.427Z,5.60
2023-05-19T20:23:09.430Z,6.68
2023-05-19T20:25:50.160Z,6.32
2023-05-19T20:28:27.317Z,5.25
2023-05-19T20:30:54.219Z,5.53
2023-05-19T20:33:21.312Z,7.03
2023-05-19T20:35:48.251Z,5.43
2023-05-19T20:38:15.168Z,5.68
2023-05-19T20:40:42.078Z,5.70
2023-05-19T20:43:09.143Z,6.13
2023-05-19T20:45:37.765Z,6.25
2023-05-19T20:48:06.002Z,5.30
2023-05-19T20:50:33.253Z,5.57
2023-05-19T20:53:00.771Z,5.65
2023-05-19T20:55:27.703Z,5.80
2023-05-19T20:57:54.817Z,5.95
2023-05-19T21:00:21.794Z,4.80
2023-05-19T21:02:50.136Z,6.20
2023-05-19T21:07:43.826Z,5.15
2023-05-19T21:10:13.783Z,5.32
2023-05-19T21:12:40.723Z,4.80
2023-05-19T21:15:08.864Z,6.20
2023-05-19T21:17:35.895Z,5.85
2023-05-19T21:20:05.396Z,5.18
2023-05-19T21:22:32.393Z,5.82
2023-05-19T21:24:59.429Z,6.05
2023-05-19T21:27:26.360Z,5.93
2023-05-19T21:29:54.231Z,5.45
2023-05-19T21:32:21.671Z,6.20
2023-05-19T21:34:48.822Z,6.50
2023-05-19T21:37:17.761Z,7.30
2023-05-19T21:39:45.074Z,5.50
2023-05-19T21:42:12.421Z,6.35
2023-05-19T21:44:39.404Z,5.70
2023-05-19T21:47:06.778Z,6.18
2023-05-19T21:49:33.743Z,5.90
2023-05-19T21:52:00.712Z,6.97
2023-05-19T21:54:29.176Z,7.45
2023-05-19T21:56:56.199Z,5.85
2023-05-19T21:59:24.856Z,6.97
2023-05-19T22:01:52.375Z,5.57
2023-05-19T22:04:21.209Z,5.45
2023-05-19T22:06:48.271Z,5.10
2023-05-19T22:09:15.283Z,5.55
2023-05-19T22:11:43.607Z,5.25
2023-05-19T22:14:10.826Z,7.35
2023-05-19T22:16:37.814Z,6.25
2023-05-19T22:19:04.970Z,5.57
2023-05-19T22:21:32.084Z,6.82
2023-05-19T22:23:59.219Z,6.00
2023-05-19T22:26:27.201Z,5.25
2023-05-19T22:28:55.514Z,6.80
2023-05-19T22:31:22.460Z,6.10
2023-05-19T22:33:49.390Z,6.57
2023-05-19T22:36:16.515Z,6.57
2023-05-19T22:38:43.462Z,5.88
2023-05-19T22:41:10.418Z,5.40
2023-05-19T22:43:37.439Z,6.60
2023-05-19T22:46:06.248Z,5.80
2023-05-19T22:48:33.218Z,6.57
2023-05-19T22:51:00.161Z,5.78
2023-05-19T22:53:27.163Z,5.28
2023-05-19T22:55:54.156Z,5.15
2023-05-19T22:58:21.112Z,5.82
2023-05-19T23:00:48.080Z,6.45
2023-05-19T23:03:16.612Z,5.90
2023-05-19T23:05:43.582Z,5.85
2023-05-19T23:08:10.648Z,5.72
2023-05-19T23:10:38.025Z,5.78
2023-05-19T23:13:05.024Z,5.35
2023-05-19T23:15:32.234Z,6.00
2023-05-19T23:18:01.294Z,5.10
2023-05-19T23:20:29.677Z,6.10
2023-05-19T23:22:56.714Z,6.05
2023-05-19T23:25:23.691Z,5.25
2023-05-19T23:27:50.701Z,6.15
2023-05-19T23:30:17.766Z,4.65
2023-05-19T23:32:44.711Z,4.55
2023-05-19T23:35:13.026Z,6.25
2023-05-19T23:37:41.516Z,5.45
2023-05-19T23:40:09.225Z,4.88
2023-05-19T23:42:36.677Z,4.65
2023-05-19T23:45:03.910Z,4.85
2023-05-19T23:47:30.906Z,4.82
2023-05-19T23:49:57.905Z,4.57
2023-05-19T23:52:25.008Z,5.78
2023-05-19T23:54:53.390Z,5.03
2023-05-19T23:57:20.503Z,3.97
2023-05-19T23:59:47.574Z,4.57
